createdAt,value
2023-10-08T00:00:54.978Z,9.30
2023-10-08T00:05:52.723Z,6.95
2023-10-08T00:08:19.185Z,8.20
2023-10-08T00:10:46.333Z,9.50
2023-10-08T00:13:13.860Z,11.43
2023-10-08T00:15:53.054Z,9.27
2023-10-08T00:18:24.098Z,9.85
2023-10-08T00:21:07.607Z,10.13
2023-10-08T00:23:36.157Z,7.97
2023-10-08T00:26:05.903Z,10.63
2023-10-08T00:28:32.773Z,10.00
2023-10-08T00:31:06.754Z,8.18
2023-10-08T00:33:33.323Z,9.48
2023-10-08T00:35:59.705Z,9.40
2023-10-08T00:38:33.222Z,9.95
2023-10-08T00:41:01.200Z,7.40
2023-10-08T00:43:35.804Z,11.10
2023-10-08T00:46:10.054Z,8.95
2023-10-08T00:48:37.709Z,9.55
2023-10-08T00:51:25.864Z,6.85
2023-10-08T00:53:59.944Z,9.05
2023-10-08T00:56:45.138Z,10.88
2023-10-08T00:59:14.697Z,9.27
2023-10-08T01:01:41.789Z,9.95
2023-10-08T01:04:13.153Z,10.73
2023-10-08T01:06:41.033Z,9.45
2023-10-08T01:09:19.196Z,9.35
2023-10-08T01:11:51.450Z,7.72
2023-10-08T01:14:22.109Z,9.77
2023-10-08T01:16:48.827Z,9.10
2023-10-08T01:19:21.550Z,8.02
2023-10-08T01:21:48.039Z,6.82
2023-10-08T01:24:18.352Z,7.93
2023-10-08T01:26:46.274Z,7.20
2023-10-08T01:29:22.521Z,9.10
2023-10-08T01:34:18.559Z,10.13
2023-10-08T01:36:47.690Z,7.78
2023-10-08T01:39:18.138Z,8.75
2023-10-08T01:41:45.965Z,7.05
2023-10-08T01:44:13.060Z,9.15
2023-10-08T01:46:41.864Z,7.53
2023-10-08T01:49:15.839Z,8.38
2023-10-08T01:51:48.259Z,9.25
2023-10-08T01:54:16.068Z,8.18
2023-10-08T01:56:43.445Z,8.15
2023-10-08T01:59:11.409Z,10.13
2023-10-08T02:01:39.428Z,8.32
2023-10-08T02:04:08.544Z,7.55
2023-10-08T02:06:35.440Z,12.60
2023-10-08T02:09:08.819Z,8.48
2023-10-08T02:11:51.973Z,7.90
2023-10-08T02:14:19.631Z,9.18
2023-10-08T02:16:46.183Z,8.82
2023-10-08T02:19:12.857Z,8.32
2023-10-08T02:21:40.868Z,9.40
2023-10-08T02:24:09.508Z,8.73
2023-10-08T02:26:35.985Z,8.38
2023-10-08T02:29:02.653Z,8.65
2023-10-08T02:31:29.199Z,11.70
2023-10-08T02:33:55.705Z,8.95
2023-10-08T02:36:22.084Z,10.07
2023-10-08T02:38:48.719Z,9.48
2023-10-08T02:41:18.437Z,9.90
2023-10-08T02:43:45.983Z,9.57
2023-10-08T02:46:16.558Z,9.98
2023-10-08T02:48:43.122Z,8.00
2023-10-08T02:51:15.664Z,8.68
2023-10-08T02:53:45.490Z,9.93
2023-10-08T02:56:15.279Z,7.90
2023-10-08T02:58:41.866Z,9.88
2023-10-08T03:01:13.243Z,11.73
2023-10-08T03:03:47.831Z,9.23
2023-10-08T03:06:15.957Z,9.65
2023-10-08T03:08:42.958Z,10.45
2023-10-08T03:11:17.837Z,10.25
2023-10-08T03:13:47.611Z,9.20
2023-10-08T03:16:14.959Z,10.50
2023-10-08T03:18:46.322Z,9.50
2023-10-08T03:21:24.748Z,8.15
2023-10-08T03:23:52.082Z,10.10
2023-10-08T03:26:34.710Z,9.10
2023-10-08T03:29:06.835Z,10.05
2023-10-08T03:31:50.905Z,8.48
2023-10-08T03:34:28.099Z,8.82
2023-10-08T03:37:00.757Z,9.52
2023-10-08T03:39:47.113Z,9.55
2023-10-08T03:42:21.082Z,8.73
2023-10-08T03:44:52.044Z,8.27
2023-10-08T03:47:20.168Z,10.02
2023-10-08T03:49:47.214Z,12.60
2023-10-08T03:52:16.778Z,10.05
2023-10-08T03:55:07.884Z,8.68
2023-10-08T03:57:43.438Z,7.82
2023-10-08T04:00:15.525Z,9.70
2023-10-08T04:02:42.800Z,9.77
2023-10-08T04:05:22.521Z,9.23
2023-10-08T04:08:00.731Z,8.15
2023-10-08T04:10:50.536Z,9.13
2023-10-08T04:13:17.584Z,9.43
2023-10-08T04:15:44.056Z,8.35
2023-10-08T04:18:11.956Z,9.13
2023-10-08T04:20:38.727Z,7.78
2023-10-08T04:23:19.447Z,9.27
2023-10-08T04:25:46.006Z,9.52
2023-10-08T04:28:15.413Z,8.98
2023-10-08T04:30:42.739Z,8.75
2023-10-08T04:33:13.833Z,11.05
2023-10-08T04:35:57.868Z,9.68
2023-10-08T04:38:29.629Z,10.75
2023-10-08T04:40:56.961Z,9.93
2023-10-08T04:43:32.056Z,9.35
2023-10-08T04:46:00.087Z,9.10
2023-10-08T04:48:30.819Z,9.68
2023-10-08T04:51:00.315Z,10.82
2023-10-08T04:53:32.914Z,9.18
2023-10-08T04:56:06.512Z,8.98
2023-10-08T04:58:37.032Z,9.02
2023-10-08T05:01:21.638Z,7.28
2023-10-08T05:04:08.437Z,9.93
2023-10-08T05:06:36.029Z,9.63
2023-10-08T05:09:21.878Z,9.52
2023-10-08T05:11:53.428Z,11.40
2023-10-08T05:14:35.926Z,12.30
2023-10-08T05:17:19.312Z,7.15
2023-10-08T05:20:04.118Z,9.05
2023-10-08T05:22:30.460Z,12.18
2023-10-08T05:25:16.412Z,9.50
2023-10-08T05:27:49.745Z,10.10
2023-10-08T05:30:43.677Z,6.90
2023-10-08T05:33:48.475Z,12.55
2023-10-08T05:36:20.233Z,8.15
2023-10-08T05:38:50.584Z,10.73
2023-10-08T05:41:29.357Z,11.00
2023-10-08T05:44:14.468Z,10.45
2023-10-08T05:46:50.367Z,10.57
2023-10-08T05:49:27.196Z,11.75
2023-10-08T05:51:53.549Z,13.60
2023-10-08T05:54:31.050Z,7.55
2023-10-08T05:57:11.441Z,10.50
2023-10-08T05:59:57.056Z,10.52
2023-10-08T06:02:39.479Z,10.82
2023-10-08T06:05:10.781Z,9.48
2023-10-08T06:08:07.437Z,10.93
2023-10-08T06:10:34.412Z,10.48
2023-10-08T06:13:07.376Z,8.45
2023-10-08T06:15:57.548Z,9.20
2023-10-08T06:18:29.926Z,8.43
2023-10-08T06:21:01.538Z,10.50
2023-10-08T06:23:30.182Z,8.57
2023-10-08T06:25:59.874Z,9.75
2023-10-08T06:28:27.693Z,10.35
2023-10-08T06:30:57.551Z,9.52
2023-10-08T06:33:34.623Z,8.70
2023-10-08T06:36:04.631Z,9.38
2023-10-08T06:38:32.162Z,7.70
2023-10-08T06:41:01.141Z,13.13
2023-10-08T06:43:29.218Z,9.23
2023-10-08T06:45:59.446Z,11.10
2023-10-08T06:48:26.386Z,9.65
2023-10-08T06:51:14.372Z,11.55
2023-10-08T06:53:41.778Z,10.60
2023-10-08T06:56:10.945Z,9.05
2023-10-08T06:58:37.476Z,8.82
2023-10-08T07:01:06.073Z,13.07
2023-10-08T07:03:34.954Z,10.20
2023-10-08T07:06:03.678Z,10.20
2023-10-08T07:08:32.949Z,10.05
2023-10-08T07:11:02.638Z,10.90
2023-10-08T07:13:30.570Z,12.13
2023-10-08T07:15:58.246Z,8.75
2023-10-08T07:18:27.493Z,11.10
2023-10-08T07:20:55.611Z,8.65
2023-10-08T07:23:26.395Z,9.90
2023-10-08T07:25:54.155Z,9.05
2023-10-08T07:28:20.990Z,9.25
2023-10-08T07:30:48.971Z,9.65
2023-10-08T07:33:26.107Z,8.95
2023-10-08T07:35:58.238Z,7.47
2023-10-08T07:38:31.141Z,8.88
2023-10-08T07:40:57.678Z,9.23
2023-10-08T07:43:24.317Z,10.68
2023-10-08T07:45:50.767Z,10.35
2023-10-08T07:48:17.309Z,10.68
2023-10-08T07:50:46.949Z,11.15
2023-10-08T07:53:20.314Z,11.25
2023-10-08T07:55:48.152Z,10.88
2023-10-08T07:58:19.525Z,9.18
2023-10-08T08:01:01.874Z,8.55
2023-10-08T08:03:28.347Z,8.32
2023-10-08T08:05:55.027Z,11.43
2023-10-08T08:08:22.840Z,10.23
2023-10-08T08:10:50.014Z,8.90
2023-10-08T08:13:21.205Z,9.50
2023-10-08T08:15:52.942Z,11.15
2023-10-08T08:18:23.715Z,9.20
2023-10-08T08:20:50.572Z,12.90
2023-10-08T08:23:17.599Z,10.35
2023-10-08T08:25:56.332Z,11.18
2023-10-08T08:28:25.743Z,15.70
2023-10-08T08:30:54.005Z,25.17
2023-10-08T08:33:24.308Z,13.45
2023-10-08T08:36:01.628Z,13.15
2023-10-08T08:38:33.332Z,10.70
2023-10-08T08:41:07.906Z,21.42
2023-10-08T08:43:38.037Z,9.95
2023-10-08T08:46:08.316Z,10.57
2023-10-08T08:48:37.435Z,9.70
2023-10-08T08:51:04.249Z,8.93
2023-10-08T08:53:30.712Z,10.07
2023-10-08T08:55:57.598Z,9.70
2023-10-08T08:58:26.182Z,10.07
2023-10-08T09:00:53.955Z,7.72
2023-10-08T09:03:20.821Z,9.40
2023-10-08T09:05:52.087Z,8.50
2023-10-08T09:08:20.179Z,9.23
2023-10-08T09:10:53.112Z,11.00
2023-10-08T09:13:24.100Z,9.00
2023-10-08T09:15:53.429Z,9.68
2023-10-08T09:18:22.551Z,12.20
2023-10-08T09:20:49.376Z,10.65
2023-10-08T09:23:22.902Z,9.43
2023-10-08T09:25:54.413Z,12.35
2023-10-08T09:28:22.759Z,8.70
2023-10-08T09:30:50.029Z,8.80
2023-10-08T09:33:19.437Z,10.35
2023-10-08T09:35:47.314Z,11.95
2023-10-08T09:38:13.792Z,11.23
2023-10-08T09:40:47.630Z,12.07
2023-10-08T09:43:16.838Z,10.32
2023-10-08T09:45:48.071Z,9.57
2023-10-08T09:48:17.571Z,12.88
2023-10-08T09:50:46.430Z,11.88
2023-10-08T09:53:17.765Z,12.63
2023-10-08T09:55:55.288Z,13.52
2023-10-08T09:58:26.445Z,10.52
2023-10-08T10:00:58.201Z,12.50
2023-10-08T10:03:27.220Z,12.38
2023-10-08T10:05:59.452Z,11.35
2023-10-08T10:08:28.106Z,10.90
2023-10-08T10:11:01.322Z,9.68
2023-10-08T10:13:42.463Z,10.15
2023-10-08T10:16:11.137Z,9.93
2023-10-08T10:18:37.641Z,15.73
2023-10-08T10:21:13.610Z,13.65
2023-10-08T10:23:45.554Z,12.38
2023-10-08T10:26:32.020Z,11.13
2023-10-08T10:29:16.682Z,12.50
2023-10-08T10:31:48.288Z,13.90
2023-10-08T10:34:18.912Z,12.23
2023-10-08T10:36:50.417Z,10.85
2023-10-08T10:39:27.125Z,13.27
2023-10-08T10:41:58.835Z,12.73
2023-10-08T10:44:26.228Z,12.13
2023-10-08T10:47:13.504Z,12.07
2023-10-08T10:49:50.326Z,12.13
2023-10-08T10:52:19.113Z,12.57
2023-10-08T10:54:59.140Z,13.90
2023-10-08T10:57:35.692Z,15.50
2023-10-08T11:00:25.824Z,14.85
2023-10-08T11:02:52.537Z,13.20
2023-10-08T11:05:29.505Z,12.60
2023-10-08T11:08:05.596Z,13.15
2023-10-08T11:10:33.461Z,13.65
2023-10-08T11:13:02.243Z,12.50
2023-10-08T11:15:41.308Z,12.63
2023-10-08T11:18:13.585Z,15.82
2023-10-08T11:20:45.486Z,12.23
2023-10-08T11:23:34.117Z,11.07
2023-10-08T11:26:05.358Z,12.50
2023-10-08T11:28:43.606Z,15.18
2023-10-08T11:31:14.612Z,14.13
2023-10-08T11:33:57.675Z,12.32
2023-10-08T11:36:31.792Z,13.20
2023-10-08T11:39:10.962Z,11.95
2023-10-08T11:41:50.948Z,14.60
2023-10-08T11:44:20.721Z,14.07
2023-10-08T11:46:52.553Z,14.10
2023-10-08T11:49:20.040Z,13.30
2023-10-08T11:51:47.411Z,15.38
2023-10-08T11:54:15.818Z,13.52
2023-10-08T11:56:43.080Z,13.75
2023-10-08T11:59:13.218Z,17.25
2023-10-08T12:01:43.300Z,15.00
2023-10-08T12:04:14.344Z,12.27
2023-10-08T12:06:47.857Z,15.15
2023-10-08T12:09:15.491Z,12.60
2023-10-08T12:11:41.938Z,17.50
2023-10-08T12:14:08.383Z,16.02
2023-10-08T12:16:39.893Z,15.00
2023-10-08T12:19:16.542Z,16.05
2023-10-08T12:21:47.226Z,13.63
2023-10-08T12:24:14.040Z,12.55
2023-10-08T12:26:46.815Z,17.50
2023-10-08T12:29:20.791Z,16.35
2023-10-08T12:31:48.703Z,14.85
2023-10-08T12:34:16.133Z,14.85
2023-10-08T12:36:43.346Z,16.05
2023-10-08T12:39:16.292Z,16.88
2023-10-08T12:41:45.042Z,13.85
2023-10-08T12:44:12.492Z,12.45
2023-10-08T12:46:39.176Z,17.38
2023-10-08T12:49:05.609Z,31.85
2023-10-08T12:51:36.582Z,15.43
2023-10-08T12:54:12.268Z,13.07
2023-10-08T12:56:45.672Z,16.27
2023-10-08T12:59:21.375Z,20.67
2023-10-08T13:01:52.244Z,15.38
2023-10-08T13:04:27.101Z,17.10
2023-10-08T13:06:58.716Z,16.67
2023-10-08T13:09:26.056Z,16.92
2023-10-08T13:11:52.791Z,18.90
2023-10-08T13:14:19.290Z,17.90
2023-10-08T13:16:46.468Z,16.70
2023-10-08T13:19:13.013Z,15.27
2023-10-08T13:21:39.507Z,16.25
2023-10-08T13:24:09.754Z,18.45
2023-10-08T13:26:39.426Z,16.58
2023-10-08T13:29:10.555Z,16.70
2023-10-08T13:31:37.509Z,19.15
2023-10-08T13:34:09.356Z,16.85
2023-10-08T13:36:38.841Z,16.70
2023-10-08T13:39:10.689Z,16.42
2023-10-08T13:41:42.834Z,15.80
2023-10-08T13:44:09.591Z,18.13
2023-10-08T13:46:37.417Z,17.67
2023-10-08T13:49:06.858Z,16.20
2023-10-08T13:51:36.042Z,17.67
2023-10-08T13:54:04.232Z,17.33
2023-10-08T13:56:32.401Z,16.88
2023-10-08T13:59:15.502Z,14.35
2023-10-08T14:01:53.907Z,13.57
2023-10-08T14:04:21.496Z,16.00
2023-10-08T14:06:55.928Z,13.82
2023-10-08T14:09:23.532Z,18.25
2023-10-08T14:11:54.131Z,17.00
2023-10-08T14:14:24.983Z,19.52
2023-10-08T14:16:55.399Z,17.00
2023-10-08T14:19:29.631Z,14.00
2023-10-08T14:22:01.471Z,15.30
2023-10-08T14:24:32.418Z,18.30
2023-10-08T14:27:03.915Z,14.80
2023-10-08T14:29:31.047Z,15.02
2023-10-08T14:31:57.966Z,14.70
2023-10-08T14:34:51.161Z,15.07
2023-10-08T14:37:36.337Z,17.25
2023-10-08T14:40:22.338Z,15.73
2023-10-08T14:43:02.672Z,20.83
2023-10-08T14:45:32.521Z,15.63
2023-10-08T14:47:59.816Z,15.13
2023-10-08T14:50:34.433Z,14.50
2023-10-08T14:53:02.102Z,15.10
2023-10-08T14:55:28.885Z,16.08
2023-10-08T14:57:55.608Z,17.30
2023-10-08T15:00:25.885Z,16.98
2023-10-08T15:02:56.101Z,14.35
2023-10-08T15:05:25.418Z,16.05
2023-10-08T15:07:53.004Z,16.65
2023-10-08T15:10:20.513Z,16.13
2023-10-08T15:12:48.750Z,17.15
2023-10-08T15:15:16.266Z,13.52
2023-10-08T15:17:44.421Z,16.83
2023-10-08T15:20:18.361Z,15.70
2023-10-08T15:22:45.837Z,16.52
2023-10-08T15:25:13.954Z,15.27
2023-10-08T15:27:44.792Z,15.43
2023-10-08T15:30:16.661Z,16.52
2023-10-08T15:32:45.452Z,14.82
2023-10-08T15:35:16.797Z,15.10
2023-10-08T15:37:43.895Z,17.67
2023-10-08T15:40:18.634Z,18.40
2023-10-08T15:43:05.009Z,17.52
2023-10-08T15:45:31.442Z,14.13
2023-10-08T15:47:58.196Z,12.90
2023-10-08T15:50:26.910Z,15.30
2023-10-08T15:52:55.015Z,16.88
2023-10-08T15:55:23.261Z,14.90
2023-10-08T15:57:50.666Z,16.13
2023-10-08T16:00:19.136Z,17.67
2023-10-08T16:02:46.964Z,17.08
2023-10-08T16:05:15.576Z,15.05
2023-10-08T16:07:41.994Z,12.35
2023-10-08T16:10:08.949Z,15.73
2023-10-08T16:12:37.289Z,15.75
2023-10-08T16:15:05.586Z,16.10
2023-10-08T16:17:32.597Z,17.80
2023-10-08T16:19:59.338Z,15.43
2023-10-08T16:22:25.751Z,16.35
2023-10-08T16:24:52.576Z,17.05
2023-10-08T16:27:20.322Z,15.55
2023-10-08T16:29:46.988Z,15.55
2023-10-08T16:32:13.458Z,17.63
2023-10-08T16:34:39.832Z,15.93
2023-10-08T16:37:07.143Z,15.50
2023-10-08T16:39:33.543Z,18.30
2023-10-08T16:42:00.139Z,16.98
2023-10-08T16:44:27.141Z,18.20
2023-10-08T16:46:53.637Z,17.98
2023-10-08T16:49:22.048Z,16.75
2023-10-08T16:51:48.672Z,17.52
2023-10-08T16:54:16.518Z,18.35
2023-10-08T16:56:44.730Z,14.90
2023-10-08T16:59:15.196Z,13.65
2023-10-08T17:01:43.472Z,17.35
2023-10-08T17:04:10.098Z,19.35
2023-10-08T17:06:36.652Z,17.38
2023-10-08T17:09:07.388Z,20.95
2023-10-08T17:11:36.143Z,22.55
2023-10-08T17:14:02.514Z,18.08
2023-10-08T17:16:29.032Z,18.65
2023-10-08T17:18:55.489Z,18.90
2023-10-08T17:21:23.543Z,17.88
2023-10-08T17:23:49.942Z,16.92
2023-10-08T17:26:17.490Z,17.30
2023-10-08T17:28:43.833Z,16.33
2023-10-08T17:31:12.002Z,15.57
2023-10-08T17:33:39.852Z,17.85
2023-10-08T17:36:07.331Z,17.08
2023-10-08T17:38:34.377Z,22.17
2023-10-08T17:41:02.164Z,21.27
2023-10-08T17:43:30.550Z,18.70
2023-10-08T17:45:56.930Z,19.45
2023-10-08T17:48:25.264Z,18.45
2023-10-08T17:50:51.792Z,18.50
2023-10-08T17:53:20.408Z,23.40
2023-10-08T17:55:47.887Z,20.50
2023-10-08T17:58:17.152Z,20.17
2023-10-08T18:00:44.831Z,17.52
2023-10-08T18:03:12.117Z,20.50
2023-10-08T18:05:40.167Z,20.73
2023-10-08T18:08:07.578Z,19.65
2023-10-08T18:10:36.793Z,19.55
2023-10-08T18:13:03.506Z,19.17
2023-10-08T18:15:33.366Z,20.42
2023-10-08T18:20:36.746Z,22.20
2023-10-08T18:23:03.972Z,19.98
2023-10-08T18:25:33.200Z,18.77
2023-10-08T18:28:00.154Z,22.88
2023-10-08T18:30:27.139Z,20.67
2023-10-08T18:32:55.420Z,22.50
2023-10-08T18:35:22.820Z,23.88
2023-10-08T18:37:50.932Z,20.20
2023-10-08T18:40:17.515Z,23.02
2023-10-08T18:42:46.761Z,27.10
2023-10-08T18:45:15.783Z,37.22
2023-10-08T18:47:42.516Z,33.28
2023-10-08T18:50:15.718Z,24.88
2023-10-08T18:52:43.352Z,20.95
2023-10-08T18:55:10.127Z,26.95
2023-10-08T18:57:37.251Z,24.48
2023-10-08T19:00:10.737Z,19.95
2023-10-08T19:02:39.622Z,20.88
2023-10-08T19:05:06.994Z,19.65
2023-10-08T19:07:34.668Z,20.90
2023-10-08T19:10:05.747Z,22.30
2023-10-08T19:12:33.298Z,23.65
2023-10-08T19:15:00.561Z,23.83
2023-10-08T19:17:30.795Z,20.70
2023-10-08T19:19:57.886Z,18.77
2023-10-08T19:22:24.406Z,19.88
2023-10-08T19:24:53.974Z,20.27
2023-10-08T19:27:20.469Z,20.10
2023-10-08T19:29:47.037Z,20.23
2023-10-08T19:32:13.978Z,21.48
2023-10-08T19:34:40.349Z,20.40
2023-10-08T19:37:07.409Z,21.75
2023-10-08T19:39:33.919Z,18.17
2023-10-08T19:42:00.390Z,22.73
2023-10-08T19:44:26.805Z,19.35
2023-10-08T19:46:53.242Z,19.65
2023-10-08T19:49:22.469Z,20.10
2023-10-08T19:51:49.866Z,16.85
2023-10-08T19:54:16.321Z,18.42
2023-10-08T19:56:43.159Z,19.73
2023-10-08T19:59:12.417Z,19.15
2023-10-08T20:01:39.974Z,23.25
2023-10-08T20:04:07.611Z,20.52
2023-10-08T20:06:37.948Z,16.17
2023-10-08T20:09:07.520Z,18.63
2023-10-08T20:11:35.160Z,19.75
2023-10-08T20:14:02.214Z,18.60
2023-10-08T20:16:31.053Z,16.08
2023-10-08T20:18:57.862Z,19.05
2023-10-08T20:21:24.282Z,19.85
2023-10-08T20:23:51.750Z,20.13
2023-10-08T20:26:22.054Z,19.85
2023-10-08T20:28:52.325Z,16.73
2023-10-08T20:31:18.905Z,18.00
2023-10-08T20:33:45.618Z,19.52
2023-10-08T20:36:12.369Z,18.52
2023-10-08T20:38:39.197Z,19.38
2023-10-08T20:41:08.161Z,20.08
2023-10-08T20:43:35.252Z,19.48
2023-10-08T20:46:01.761Z,17.70
2023-10-08T20:48:28.987Z,17.85
2023-10-08T20:50:57.910Z,19.67
2023-10-08T20:53:25.815Z,21.95
2023-10-08T20:55:53.528Z,20.90
2023-10-08T20:58:26.113Z,16.60
2023-10-08T21:00:56.647Z,18.67
2023-10-08T21:03:23.135Z,18.75
2023-10-08T21:05:49.646Z,16.45
2023-10-08T21:08:16.462Z,19.42
2023-10-08T21:10:59.983Z,19.13
2023-10-08T21:13:28.106Z,16.73
2023-10-08T21:15:55.974Z,18.95
2023-10-08T21:18:24.306Z,16.20
2023-10-08T21:20:51.221Z,19.23
2023-10-08T21:23:17.679Z,19.88
2023-10-08T21:25:45.882Z,20.38
2023-10-08T21:28:12.394Z,18.95
2023-10-08T21:30:38.800Z,19.92
2023-10-08T21:33:09.694Z,18.35
2023-10-08T21:35:36.776Z,17.95
2023-10-08T21:38:03.670Z,16.40
2023-10-08T21:40:30.368Z,18.13
2023-10-08T21:42:58.405Z,14.48
2023-10-08T21:45:24.920Z,15.60
2023-10-08T21:47:51.485Z,14.63
2023-10-08T21:50:19.484Z,16.17
2023-10-08T21:52:49.692Z,16.80
2023-10-08T21:55:17.179Z,16.58
2023-10-08T21:57:48.918Z,18.15
2023-10-08T22:00:27.055Z,19.42
2023-10-08T22:02:59.054Z,16.50
2023-10-08T22:05:30.750Z,17.02
2023-10-08T22:07:58.889Z,18.20
2023-10-08T22:10:28.727Z,15.52
2023-10-08T22:12:55.246Z,15.63
2023-10-08T22:15:28.083Z,14.90
2023-10-08T22:17:56.598Z,15.43
2023-10-08T22:20:38.125Z,13.43
2023-10-08T22:23:07.424Z,16.13
2023-10-08T22:25:37.526Z,13.45
2023-10-08T22:28:12.301Z,13.93
2023-10-08T22:30:42.961Z,16.63
2023-10-08T22:33:11.776Z,15.32
2023-10-08T22:35:43.501Z,17.15
2023-10-08T22:38:18.133Z,14.82
2023-10-08T22:40:57.173Z,15.90
2023-10-08T22:43:24.050Z,16.63
2023-10-08T22:45:51.988Z,14.85
2023-10-08T22:48:30.692Z,14.95
2023-10-08T22:50:57.888Z,16.23
2023-10-08T22:53:26.433Z,13.82
2023-10-08T22:55:53.216Z,15.32
2023-10-08T22:58:19.589Z,14.95
2023-10-08T23:00:50.644Z,12.65
2023-10-08T23:03:23.019Z,14.77
2023-10-08T23:05:52.847Z,15.15
2023-10-08T23:08:23.827Z,13.23
2023-10-08T23:10:55.124Z,11.88
2023-10-08T23:13:22.852Z,13.90
2023-10-08T23:15:55.036Z,12.27
2023-10-08T23:18:24.805Z,15.82
2023-10-08T23:23:21.203Z,13.60
2023-10-08T23:25:48.373Z,16.42
2023-10-08T23:28:14.758Z,14.85
2023-10-08T23:30:41.447Z,13.77
2023-10-08T23:33:09.388Z,15.05
2023-10-08T23:35:41.346Z,12.60
2023-10-08T23:38:09.546Z,11.95
2023-10-08T23:40:45.574Z,12.05
2023-10-08T23:45:56.616Z,11.45
2023-10-08T23:48:23.846Z,12.75
2023-10-08T23:50:54.750Z,12.05
2023-10-08T23:53:31.367Z,12.77
2023-10-08T23:56:01.978Z,12.05
2023-10-08T23:58:36.781Z,13.75
